sensor_id;sensor_type;location;lat;lon;timestamp;temperature;humidity
12632;DHT22;6381;45.748;12.106;2024-01-11T12:35:00;12.20;30.20
12632;DHT22;6381;45.748;12.106;2024-01-11T12:37:30;13.20;29.30
12632;DHT22;6381;45.748;12.106;2024-01-11T12:39:59;13.00;28.90
12632;DHT22;6381;45.748;12.106;2024-01-11T12:42:28;12.80;28.20
12632;DHT22;6381;45.748;12.106;2024-01-11T12:44:56;12.60;27.70
12632;DHT22;6381;45.748;12.106;2024-01-11T12:47:26;12.70;27.60
12632;DHT22;6381;45.748;12.106;2024-01-11T12:49:55;12.60;27.10
12632;DHT22;6381;45.748;12.106;2024-01-11T12:52:25;12.70;27.20
12632;DHT22;6381;45.748;12.106;2024-01-11T12:54:56;13.00;27.10
12632;DHT22;6381;45.748;12.106;2024-01-11T12:57:25;13.60;27.10
12632;DHT22;6381;45.748;12.106;2024-01-11T12:59:54;12.90;26.80
12632;DHT22;6381;45.748;12.106;2024-01-11T13:02:22;12.90;26.80
12632;DHT22;6381;45.748;12.106;2024-01-11T13:04:51;13.20;26.60
12632;DHT22;6381;45.748;12.106;2024-01-11T13:07:20;13.40;26.00
12632;DHT22;6381;45.748;12.106;2024-01-11T13:09:51;13.70;26.10
12632;DHT22;6381;45.748;12.106;2024-01-11T13:12:20;13.70;25.80
12632;DHT22;6381;45.748;12.106;2024-01-11T13:14:49;13.20;26.00
12632;DHT22;6381;45.748;12.106;2024-01-11T13:17:20;13.70;26.60
12632;DHT22;6381;45.748;12.106;2024-01-11T13:19:48;13.70;26.00
12632;DHT22;6381;45.748;12.106;2024-01-11T13:22:17;13.80;25.80
12632;DHT22;6381;45.748;12.106;2024-01-11T13:24:47;13.80;25.30
12632;DHT22;6381;45.748;12.106;2024-01-11T13:27:17;13.30;25.00
12632;DHT22;6381;45.748;12.106;2024-01-11T13:29:46;13.50;24.90
12632;DHT22;6381;45.748;12.106;2024-01-11T13:32:15;13.40;24.40
12632;DHT22;6381;45.748;12.106;2024-01-11T13:34:43;13.20;24.10
12632;DHT22;6381;45.748;12.106;2024-01-11T13:37:13;13.30;23.90
12632;DHT22;6381;45.748;12.106;2024-01-11T13:39:42;13.00;23.60
12632;DHT22;6381;45.748;12.106;2024-01-11T13:42:11;13.50;23.80
12632;DHT22;6381;45.748;12.106;2024-01-11T13:44:41;13.30;24.00
12632;DHT22;6381;45.748;12.106;2024-01-11T13:47:10;12.40;24.30
12632;DHT22;6381;45.748;12.106;2024-01-11T13:49:40;12.90;24.80
12632;DHT22;6381;45.748;12.106;2024-01-11T13:52:10;13.20;24.40
12632;DHT22;6381;45.748;12.106;2024-01-11T13:54:39;12.90;24.30
12632;DHT22;6381;45.748;12.106;2024-01-11T13:57:08;13.30;24.70
12632;DHT22;6381;45.748;12.106;2024-01-11T13:59:36;13.30;24.30
12632;DHT22;6381;45.748;12.106;2024-01-11T14:02:06;13.40;24.20
12632;DHT22;6381;45.748;12.106;2024-01-11T14:04:35;13.90;24.00
12632;DHT22;6381;45.748;12.106;2024-01-11T14:07:04;13.90;23.40
12632;DHT22;6381;45.748;12.106;2024-01-11T14:09:32;13.30;23.20
12632;DHT22;6381;45.748;12.106;2024-01-11T14:12:01;13.80;23.30
12632;DHT22;6381;45.748;12.106;2024-01-11T14:14:30;13.40;23.20
12632;DHT22;6381;45.748;12.106;2024-01-11T14:16:58;13.70;23.20
12632;DHT22;6381;45.748;12.106;2024-01-11T14:19:29;12.90;22.80
12632;DHT22;6381;45.748;12.106;2024-01-11T14:21:57;12.40;23.20
12632;DHT22;6381;45.748;12.106;2024-01-11T14:24:26;13.40;23.80
12632;DHT22;6381;45.748;12.106;2024-01-11T14:27:03;13.50;23.40
12632;DHT22;6381;45.748;12.106;2024-01-11T14:29:32;13.50;23.00
12632;DHT22;6381;45.748;12.106;2024-01-11T14:32:00;13.40;22.90
12632;DHT22;6381;45.748;12.106;2024-01-11T14:34:30;13.70;22.80
12632;DHT22;6381;45.748;12.106;2024-01-11T14:37:00;13.30;22.70
12632;DHT22;6381;45.748;12.106;2024-01-11T14:39:29;12.60;22.90
12632;DHT22;6381;45.748;12.106;2024-01-11T14:41:58;13.30;23.60
12632;DHT22;6381;45.748;12.106;2024-01-11T14:44:26;13.30;23.10
12632;DHT22;6381;45.748;12.106;2024-01-11T14:46:55;11.90;23.70
12632;DHT22;6381;45.748;12.106;2024-01-11T14:49:24;11.80;24.00
12632;DHT22;6381;45.748;12.106;2024-01-11T14:51:55;11.80;24.50
12632;DHT22;6381;45.748;12.106;2024-01-11T14:54:24;12.30;24.40
12632;DHT22;6381;45.748;12.106;2024-01-11T14:56:55;12.00;24.20
12632;DHT22;6381;45.748;12.106;2024-01-11T14:59:24;11.90;24.40
12632;DHT22;6381;45.748;12.106;2024-01-11T15:01:52;11.90;24.50
12632;DHT22;6381;45.748;12.106;2024-01-11T15:04:21;11.60;24.80
12632;DHT22;6381;45.748;12.106;2024-01-11T15:06:50;11.50;25.00
12632;DHT22;6381;45.748;12.106;2024-01-11T15:09:20;11.50;25.40
12632;DHT22;6381;45.748;12.106;2024-01-11T15:11:49;11.70;26.20
12632;DHT22;6381;45.748;12.106;2024-01-11T15:14:17;12.20;25.90
12632;DHT22;6381;45.748;12.106;2024-01-11T15:16:46;11.70;25.50
12632;DHT22;6381;45.748;12.106;2024-01-11T15:19:15;11.60;25.80
12632;DHT22;6381;45.748;12.106;2024-01-11T15:21:44;11.30;26.00
12632;DHT22;6381;45.748;12.106;2024-01-11T15:24:17;10.60;26.80
12632;DHT22;6381;45.748;12.106;2024-01-11T15:26:48;10.80;27.40
12632;DHT22;6381;45.748;12.106;2024-01-11T15:29:17;10.70;27.20
12632;DHT22;6381;45.748;12.106;2024-01-11T15:31:46;10.60;27.50
12632;DHT22;6381;45.748;12.106;2024-01-11T15:34:17;10.20;27.90
12632;DHT22;6381;45.748;12.106;2024-01-11T15:36:47;9.70;28.10
12632;DHT22;6381;45.748;12.106;2024-01-11T15:39:16;9.40;28.90
12632;DHT22;6381;45.748;12.106;2024-01-11T15:41:56;9.20;29.50
12632;DHT22;6381;45.748;12.106;2024-01-11T15:44:26;9.00;30.10
12632;DHT22;6381;45.748;12.106;2024-01-11T15:46:56;8.90;31.00
12632;DHT22;6381;45.748;12.106;2024-01-11T15:49:25;8.90;31.30
12632;DHT22;6381;45.748;12.106;2024-01-11T15:51:54;8.70;32.10
12632;DHT22;6381;45.748;12.106;2024-01-11T15:54:23;8.60;33.20
12632;DHT22;6381;45.748;12.106;2024-01-11T15:56:51;8.70;34.30
12632;DHT22;6381;45.748;12.106;2024-01-11T15:59:22;8.30;34.60
12632;DHT22;6381;45.748;12.106;2024-01-11T16:01:53;7.90;35.00
12632;DHT22;6381;45.748;12.106;2024-01-11T16:04:33;7.90;35.70
12632;DHT22;6381;45.748;12.106;2024-01-11T16:07:02;7.80;36.50
12632;DHT22;6381;45.748;12.106;2024-01-11T16:09:31;7.80;37.10
12632;DHT22;6381;45.748;12.106;2024-01-11T16:12:00;8.00;37.40
12632;DHT22;6381;45.748;12.106;2024-01-11T16:14:34;7.90;37.70
12632;DHT22;6381;45.748;12.106;2024-01-11T16:17:03;7.80;38.20
12632;DHT22;6381;45.748;12.106;2024-01-11T16:19:32;7.50;38.90
12632;DHT22;6381;45.748;12.106;2024-01-11T16:22:01;7.30;39.60
12632;DHT22;6381;45.748;12.106;2024-01-11T16:24:30;7.30;40.30
12632;DHT22;6381;45.748;12.106;2024-01-11T16:26:59;7.30;40.70
12632;DHT22;6381;45.748;12.106;2024-01-11T16:29:27;7.10;41.10
12632;DHT22;6381;45.748;12.106;2024-01-11T16:31:57;7.00;41.60
12632;DHT22;6381;45.748;12.106;2024-01-11T16:34:27;6.90;42.40
12632;DHT22;6381;45.748;12.106;2024-01-11T16:36:56;7.10;42.90
12632;DHT22;6381;45.748;12.106;2024-01-11T16:39:25;6.90;43.30
12632;DHT22;6381;45.748;12.106;2024-01-11T16:41:53;6.90;44.10
12632;DHT22;6381;45.748;12.106;2024-01-11T16:44:22;6.80;44.70
12632;DHT22;6381;45.748;12.106;2024-01-11T16:46:52;6.90;45.60
12632;DHT22;6381;45.748;12.106;2024-01-11T16:49:23;7.00;46.30
12632;DHT22;6381;45.748;12.106;2024-01-11T16:51:51;6.90;47.20
12632;DHT22;6381;45.748;12.106;2024-01-11T16:54:21;6.80;48.40
12632;DHT22;6381;45.748;12.106;2024-01-11T16:56:50;7.10;49.60
12632;DHT22;6381;45.748;12.106;2024-01-11T16:59:22;7.10;49.90
12632;DHT22;6381;45.748;12.106;2024-01-11T17:01:51;7.00;50.70
12632;DHT22;6381;45.748;12.106;2024-01-11T17:04:20;7.10;51.20
12632;DHT22;6381;45.748;12.106;2024-01-11T17:06:51;7.10;51.50
12632;DHT22;6381;45.748;12.106;2024-01-11T17:09:20;6.70;51.80
12632;DHT22;6381;45.748;12.106;2024-01-11T17:11:48;6.60;53.00
12632;DHT22;6381;45.748;12.106;2024-01-11T17:14:18;6.60;54.20
12632;DHT22;6381;45.748;12.106;2024-01-11T17:16:51;6.70;55.50
12632;DHT22;6381;45.748;12.106;2024-01-11T17:19:20;6.40;56.80
12632;DHT22;6381;45.748;12.106;2024-01-11T17:21:49;6.30;58.00
12632;DHT22;6381;45.748;12.106;2024-01-11T17:24:20;6.10;59.50
12632;DHT22;6381;45.748;12.106;2024-01-11T17:26:49;6.00;60.30
12632;DHT22;6381;45.748;12.106;2024-01-11T17:29:18;5.80;62.10
12632;DHT22;6381;45.748;12.106;2024-01-11T17:31:47;5.70;63.80
12632;DHT22;6381;45.748;12.106;2024-01-11T17:34:15;5.70;65.20
12632;DHT22;6381;45.748;12.106;2024-01-11T17:36:44;5.90;66.20
12632;DHT22;6381;45.748;12.106;2024-01-11T17:39:13;5.80;66.30
12632;DHT22;6381;45.748;12.106;2024-01-11T17:41:43;5.60;67.00
12632;DHT22;6381;45.748;12.106;2024-01-11T17:44:12;5.50;68.40
12632;DHT22;6381;45.748;12.106;2024-01-11T17:46:40;5.50;69.80
12632;DHT22;6381;45.748;12.106;2024-01-11T17:49:10;5.60;70.40
12632;DHT22;6381;45.748;12.106;2024-01-11T17:51:40;5.70;70.10
12632;DHT22;6381;45.748;12.106;2024-01-11T17:54:08;5.70;70.00
12632;DHT22;6381;45.748;12.106;2024-01-11T17:56:39;6.00;69.50
12632;DHT22;6381;45.748;12.106;2024-01-11T17:59:10;6.00;69.00
12632;DHT22;6381;45.748;12.106;2024-01-11T18:01:39;5.90;68.90
12632;DHT22;6381;45.748;12.106;2024-01-11T18:04:08;6.00;69.10
12632;DHT22;6381;45.748;12.106;2024-01-11T18:06:37;5.90;68.60
12632;DHT22;6381;45.748;12.106;2024-01-11T18:09:06;5.80;68.70
12632;DHT22;6381;45.748;12.106;2024-01-11T18:11:35;5.60;69.40
12632;DHT22;6381;45.748;12.106;2024-01-11T18:14:04;5.50;70.90
12632;DHT22;6381;45.748;12.106;2024-01-11T18:16:34;5.70;71.70
12632;DHT22;6381;45.748;12.106;2024-01-11T18:19:03;5.50;72.10
12632;DHT22;6381;45.748;12.106;2024-01-11T18:21:34;5.60;73.80
12632;DHT22;6381;45.748;12.106;2024-01-11T18:24:03;5.40;74.80
12632;DHT22;6381;45.748;12.106;2024-01-11T18:26:32;5.30;75.30
12632;DHT22;6381;45.748;12.106;2024-01-11T18:29:02;5.50;75.10
12632;DHT22;6381;45.748;12.106;2024-01-11T18:31:31;5.50;74.30
12632;DHT22;6381;45.748;12.106;2024-01-11T18:34:01;5.60;74.00
12632;DHT22;6381;45.748;12.106;2024-01-11T18:36:30;5.50;74.20
12632;DHT22;6381;45.748;12.106;2024-01-11T18:39:01;5.50;75.10
12632;DHT22;6381;45.748;12.106;2024-01-11T18:46:27;5.30;79.50
12632;DHT22;6381;45.748;12.106;2024-01-11T18:51:26;5.10;80.10
12632;DHT22;6381;45.748;12.106;2024-01-11T18:56:25;5.20;80.70
12632;DHT22;6381;45.748;12.106;2024-01-11T19:01:23;5.10;80.80
12632;DHT22;6381;45.748;12.106;2024-01-11T19:03:55;5.00;82.70
12632;DHT22;6381;45.748;12.106;2024-01-11T19:06:25;4.90;83.70
12632;DHT22;6381;45.748;12.106;2024-01-11T19:08:54;5.10;84.20
12632;DHT22;6381;45.748;12.106;2024-01-11T19:11:25;5.30;84.60
12632;DHT22;6381;45.748;12.106;2024-01-11T19:13:54;5.30;84.60
12632;DHT22;6381;45.748;12.106;2024-01-11T19:16:22;5.30;83.00
12632;DHT22;6381;45.748;12.106;2024-01-11T19:18:51;5.20;81.40
12632;DHT22;6381;45.748;12.106;2024-01-11T19:21:20;5.20;82.60
12632;DHT22;6381;45.748;12.106;2024-01-11T19:23:50;5.10;83.00
12632;DHT22;6381;45.748;12.106;2024-01-11T19:28:48;4.90;84.60
12632;DHT22;6381;45.748;12.106;2024-01-11T19:31:17;4.90;85.20
12632;DHT22;6381;45.748;12.106;2024-01-11T19:33:46;4.80;85.20
12632;DHT22;6381;45.748;12.106;2024-01-11T19:36:15;5.00;85.60
12632;DHT22;6381;45.748;12.106;2024-01-11T19:38:44;4.90;86.30
12632;DHT22;6381;45.748;12.106;2024-01-11T19:41:20;5.00;86.90
12632;DHT22;6381;45.748;12.106;2024-01-11T19:43:49;4.80;87.30
12632;DHT22;6381;45.748;12.106;2024-01-11T19:46:19;4.90;88.00
12632;DHT22;6381;45.748;12.106;2024-01-11T19:48:47;4.90;88.20
12632;DHT22;6381;45.748;12.106;2024-01-11T19:51:17;5.00;87.30
12632;DHT22;6381;45.748;12.106;2024-01-11T19:53:45;4.80;87.40
12632;DHT22;6381;45.748;12.106;2024-01-11T19:56:16;4.70;88.30
12632;DHT22;6381;45.748;12.106;2024-01-11T19:58:47;4.80;89.50
12632;DHT22;6381;45.748;12.106;2024-01-11T20:01:17;5.00;89.60
12632;DHT22;6381;45.748;12.106;2024-01-11T20:03:46;5.40;88.30
12632;DHT22;6381;45.748;12.106;2024-01-11T20:06:15;5.50;87.70
12632;DHT22;6381;45.748;12.106;2024-01-11T20:08:44;5.40;85.00
12632;DHT22;6381;45.748;12.106;2024-01-11T20:16:13;5.10;84.70
12632;DHT22;6381;45.748;12.106;2024-01-11T20:18:41;5.00;85.00
12632;DHT22;6381;45.748;12.106;2024-01-11T20:21:11;4.80;85.80
12632;DHT22;6381;45.748;12.106;2024-01-11T20:23:41;5.00;87.00
12632;DHT22;6381;45.748;12.106;2024-01-11T20:26:20;5.20;86.20
12632;DHT22;6381;45.748;12.106;2024-01-11T20:31:26;5.30;85.50
12632;DHT22;6381;45.748;12.106;2024-01-11T20:38:58;5.30;84.00
12632;DHT22;6381;45.748;12.106;2024-01-11T20:41:27;5.10;84.50
12632;DHT22;6381;45.748;12.106;2024-01-11T20:43:57;5.30;83.00
12632;DHT22;6381;45.748;12.106;2024-01-11T20:46:26;5.40;82.30
12632;DHT22;6381;45.748;12.106;2024-01-11T20:48:54;5.20;82.60
12632;DHT22;6381;45.748;12.106;2024-01-11T20:51:23;5.20;82.30
12632;DHT22;6381;45.748;12.106;2024-01-11T20:53:52;4.90;82.80
12632;DHT22;6381;45.748;12.106;2024-01-11T20:56:23;4.90;85.00
12632;DHT22;6381;45.748;12.106;2024-01-11T20:58:54;4.70;85.40
12632;DHT22;6381;45.748;12.106;2024-01-11T21:01:24;4.50;84.50
12632;DHT22;6381;45.748;12.106;2024-01-11T21:03:52;4.50;85.10
12632;DHT22;6381;45.748;12.106;2024-01-11T21:06:24;4.40;85.70
12632;DHT22;6381;45.748;12.106;2024-01-11T21:08:54;4.50;86.70
12632;DHT22;6381;45.748;12.106;2024-01-11T21:11:22;4.60;87.50
12632;DHT22;6381;45.748;12.106;2024-01-11T21:13:51;4.30;86.80
12632;DHT22;6381;45.748;12.106;2024-01-11T21:16:20;4.10;87.90
12632;DHT22;6381;45.748;12.106;2024-01-11T21:18:50;3.90;89.40
12632;DHT22;6381;45.748;12.106;2024-01-11T21:21:21;3.90;90.30
12632;DHT22;6381;45.748;12.106;2024-01-11T21:23:51;4.10;90.30
12632;DHT22;6381;45.748;12.106;2024-01-11T21:26:24;4.00;90.20
12632;DHT22;6381;45.748;12.106;2024-01-11T21:28:52;4.00;90.80
12632;DHT22;6381;45.748;12.106;2024-01-11T21:31:22;4.20;90.00
12632;DHT22;6381;45.748;12.106;2024-01-11T21:33:52;4.00;90.00
12632;DHT22;6381;45.748;12.106;2024-01-11T21:38:51;3.90;90.80
12632;DHT22;6381;45.748;12.106;2024-01-11T21:41:23;4.10;91.40
12632;DHT22;6381;45.748;12.106;2024-01-11T21:43:53;4.00;92.00
12632;DHT22;6381;45.748;12.106;2024-01-11T21:48:52;3.90;91.30
12632;DHT22;6381;45.748;12.106;2024-01-11T21:51:21;4.20;90.90
12632;DHT22;6381;45.748;12.106;2024-01-11T21:53:50;4.10;90.70
12632;DHT22;6381;45.748;12.106;2024-01-11T21:58:56;3.70;90.60
12632;DHT22;6381;45.748;12.106;2024-01-11T22:01:25;3.70;91.50
12632;DHT22;6381;45.748;12.106;2024-01-11T22:03:57;3.60;91.80
12632;DHT22;6381;45.748;12.106;2024-01-11T22:06:27;3.50;92.30
12632;DHT22;6381;45.748;12.106;2024-01-11T22:08:55;3.30;93.00
12632;DHT22;6381;45.748;12.106;2024-01-11T22:11:26;3.30;93.70
12632;DHT22;6381;45.748;12.106;2024-01-11T22:13:57;3.50;94.00
12632;DHT22;6381;45.748;12.106;2024-01-11T22:16:25;3.60;93.80
12632;DHT22;6381;45.748;12.106;2024-01-11T22:18:54;3.50;93.10
12632;DHT22;6381;45.748;12.106;2024-01-11T22:21:25;3.40;93.00
12632;DHT22;6381;45.748;12.106;2024-01-11T22:23:55;3.50;92.60
12632;DHT22;6381;45.748;12.106;2024-01-11T22:26:24;3.70;92.60
12632;DHT22;6381;45.748;12.106;2024-01-11T22:28:54;3.90;91.70
12632;DHT22;6381;45.748;12.106;2024-01-11T22:31:23;3.70;90.60
12632;DHT22;6381;45.748;12.106;2024-01-11T22:33:51;3.60;90.50
12632;DHT22;6381;45.748;12.106;2024-01-11T22:36:20;3.70;90.70
12632;DHT22;6381;45.748;12.106;2024-01-11T22:38:52;3.60;90.60
12632;DHT22;6381;45.748;12.106;2024-01-11T22:41:21;3.70;90.60
12632;DHT22;6381;45.748;12.106;2024-01-11T22:43:50;3.60;90.40
12632;DHT22;6381;45.748;12.106;2024-01-11T22:46:19;3.60;90.50
12632;DHT22;6381;45.748;12.106;2024-01-11T22:48:48;3.60;90.60
12632;DHT22;6381;45.748;12.106;2024-01-11T22:51:17;3.60;90.30
12632;DHT22;6381;45.748;12.106;2024-01-11T22:53:45;3.60;90.20
12632;DHT22;6381;45.748;12.106;2024-01-11T22:56:15;3.60;90.40
12632;DHT22;6381;45.748;12.106;2024-01-11T22:58:44;3.60;90.70
12632;DHT22;6381;45.748;12.106;2024-01-11T23:01:12;3.70;91.00
12632;DHT22;6381;45.748;12.106;2024-01-11T23:03:41;3.70;91.10
12632;DHT22;6381;45.748;12.106;2024-01-11T23:06:10;3.70;91.40
12632;DHT22;6381;45.748;12.106;2024-01-11T23:08:39;3.80;91.60
12632;DHT22;6381;45.748;12.106;2024-01-11T23:11:08;4.00;91.70
12632;DHT22;6381;45.748;12.106;2024-01-11T23:13:38;3.90;91.40
12632;DHT22;6381;45.748;12.106;2024-01-11T23:16:07;4.00;91.40
12632;DHT22;6381;45.748;12.106;2024-01-11T23:18:36;3.90;89.50
12632;DHT22;6381;45.748;12.106;2024-01-11T23:21:06;4.20;89.70
12632;DHT22;6381;45.748;12.106;2024-01-11T23:23:34;4.20;88.40
12632;DHT22;6381;45.748;12.106;2024-01-11T23:26:04;4.20;87.10
12632;DHT22;6381;45.748;12.106;2024-01-11T23:28:33;4.30;86.30
12632;DHT22;6381;45.748;12.106;2024-01-11T23:31:03;4.30;86.10
12632;DHT22;6381;45.748;12.106;2024-01-11T23:40:59;4.40;86.00
12632;DHT22;6381;45.748;12.106;2024-01-11T23:51:00;4.40;83.40
12632;DHT22;6381;45.748;12.106;2024-01-11T23:53:29;4.40;83.40
12632;DHT22;6381;45.748;12.106;2024-01-11T23:55:57;4.60;79.00
12632;DHT22;6381;45.748;12.106;2024-01-11T23:58:27;5.00;80.10
